Time;durP1;ratioP1;P1;durP2;ratioP2;P2;SDS_P1;SDS_P2;PMS_P1;PMS_P2;Temp;Humidity;BMP_temperature;BMP_pressure;BME280_temperature;BME280_humidity;BME280_pressure;Samples;Min_cycle;Max_cycle;Signal;HPM_P1;HPM_P2
2022/03/08 00:05:42;;;;;;;;;;;2.10;60.20;;;;;;5130562;27;19919;-87
2022/03/08 00:08:06;;;;;;;;;;;2.00;60.30;;;;;;5129611;27;19942;-87
2022/03/08 00:10:32;;;;;;;;;;;2.00;60.10;;;;;;5133322;27;19915;-87
2022/03/08 00:12:57;;;;;;;;;;;2.00;60.10;;;;;;5115080;27;19998;-87
2022/03/08 00:15:31;;;;;;;;;;;2.00;60.20;;;;;;5114502;27;19994;-87
2022/03/08 00:17:56;;;;;;;;;;;2.00;60.30;;;;;;5106062;28;19923;-87
2022/03/08 00:20:24;;;;;;;;;;;2.00;60.20;;;;;;5123439;27;20303;-87
2022/03/08 00:22:50;;;;;;;;;;;2.10;60.00;;;;;;5129193;27;19925;-86
2022/03/08 00:25:16;;;;;;;;;;;2.00;60.30;;;;;;5113834;27;19990;-87
2022/03/08 00:27:45;;;;;;;;;;;2.00;60.50;;;;;;5113120;27;19916;-87
2022/03/08 00:30:23;;;;;;;;;;;2.10;60.50;;;;;;5113902;27;19950;-87
2022/03/08 00:32:52;;;;;;;;;;;1.90;60.90;;;;;;5119825;27;19923;-87
2022/03/08 00:35:22;;;;;;;;;;;1.70;61.70;;;;;;5114266;27;20397;-87
2022/03/08 00:37:51;;;;;;;;;;;1.80;63.00;;;;;;5113674;27;19919;-86
2022/03/08 00:40:21;;;;;;;;;;;1.80;63.30;;;;;;5111858;27;20341;-86
2022/03/08 00:42:55;;;;;;;;;;;1.80;63.60;;;;;;5133262;27;19931;-86
2022/03/08 00:45:26;;;;;;;;;;;1.90;63.70;;;;;;5113857;27;19938;-86
2022/03/08 00:47:56;;;;;;;;;;;1.90;63.80;;;;;;5112548;27;19916;-87
2022/03/08 00:50:31;;;;;;;;;;;1.80;63.80;;;;;;5113476;27;20317;-86
2022/03/08 00:53:05;;;;;;;;;;;1.70;64.60;;;;;;5112773;27;20006;-87
2022/03/08 00:55:31;;;;;;;;;;;1.60;65.40;;;;;;5112504;27;19915;-87
2022/03/08 00:58:02;;;;;;;;;;;1.60;65.40;;;;;;5111414;27;19912;-87
2022/03/08 01:00:38;;;;;;;;;;;1.60;65.40;;;;;;5137638;27;20419;-87
2022/03/08 01:03:09;;;;;;;;;;;1.60;65.80;;;;;;5113913;27;19961;-86
2022/03/08 01:05:40;;;;;;;;;;;1.60;65.50;;;;;;5113291;27;20373;-87
2022/03/08 01:08:16;;;;;;;;;;;1.60;65.30;;;;;;5131884;27;20025;-87
2022/03/08 01:10:47;;;;;;;;;;;1.50;65.30;;;;;;5112483;27;19918;-87
2022/03/08 01:13:15;;;;;;;;;;;1.40;67.30;;;;;;5104089;28;20271;-87
2022/03/08 01:15:46;;;;;;;;;;;1.40;66.30;;;;;;5101329;27;19915;-87
2022/03/08 01:18:17;;;;;;;;;;;1.40;66.40;;;;;;5132777;27;20369;-86
2022/03/08 01:20:51;;;;;;;;;;;1.40;66.30;;;;;;5130877;27;19938;-87
2022/03/08 01:23:16;;;;;;;;;;;1.40;65.70;;;;;;5113547;27;19923;-87
2022/03/08 01:25:42;;;;;;;;;;;1.40;66.40;;;;;;5112433;27;19919;-87
2022/03/08 01:28:08;;;;;;;;;;;1.30;66.30;;;;;;5109083;28;20018;-87
2022/03/08 01:30:34;;;;;;;;;;;1.40;66.30;;;;;;5111104;27;20357;-87
2022/03/08 01:33:03;;;;;;;;;;;1.30;65.90;;;;;;5158004;27;19908;-87
2022/03/08 01:35:28;;;;;;;;;;;1.40;65.60;;;;;;5145063;27;20329;-87
2022/03/08 01:38:02;;;;;;;;;;;1.40;65.60;;;;;;5121135;27;19911;-87
2022/03/08 01:40:32;;;;;;;;;;;1.30;65.90;;;;;;5111817;27;20330;-87
2022/03/08 01:43:07;;;;;;;;;;;1.30;66.20;;;;;;5112285;27;19919;-87
2022/03/08 01:45:34;;;;;;;;;;;1.30;66.20;;;;;;5128413;27;19937;-87
2022/03/08 01:47:59;;;;;;;;;;;1.20;66.40;;;;;;5125724;27;19919;-87
2022/03/08 01:50:25;;;;;;;;;;;1.10;66.80;;;;;;5112589;27;19931;-87
2022/03/08 01:52:50;;;;;;;;;;;1.10;67.10;;;;;;5113399;28;19927;-87
2022/03/08 01:55:16;;;;;;;;;;;1.20;66.90;;;;;;5131179;27;19980;-88
2022/03/08 01:57:43;;;;;;;;;;;1.20;66.80;;;;;;5129408;27;19911;-87
2022/03/08 02:00:11;;;;;;;;;;;1.10;67.10;;;;;;5130210;27;20326;-86
2022/03/08 02:02:37;;;;;;;;;;;1.10;67.30;;;;;;5108094;27;19922;-87
2022/03/08 02:05:03;;;;;;;;;;;1.00;67.40;;;;;;5113596;27;19998;-88
2022/03/08 02:07:28;;;;;;;;;;;1.10;67.70;;;;;;5132142;27;19978;-87
2022/03/08 02:09:54;;;;;;;;;;;1.00;68.20;;;;;;5133373;27;19911;-87
2022/03/08 02:12:19;;;;;;;;;;;0.90;67.90;;;;;;5116809;28;19918;-87
2022/03/08 02:14:45;;;;;;;;;;;1.10;67.20;;;;;;5113580;28;20010;-87
2022/03/08 02:17:13;;;;;;;;;;;0.90;67.60;;;;;;5112737;28;20064;-87
2022/03/08 02:19:38;;;;;;;;;;;0.80;68.10;;;;;;5112671;28;19971;-87
2022/03/08 02:22:04;;;;;;;;;;;0.80;68.70;;;;;;5112695;28;19915;-87
2022/03/08 02:24:29;;;;;;;;;;;0.80;68.20;;;;;;5112671;28;19919;-87
2022/03/08 02:26:55;;;;;;;;;;;0.80;68.80;;;;;;5112835;28;19915;-87
2022/03/08 02:29:20;;;;;;;;;;;0.80;68.50;;;;;;5109289;28;19946;-87
2022/03/08 02:31:47;;;;;;;;;;;0.80;68.30;;;;;;5112852;28;20326;-87
2022/03/08 02:34:16;;;;;;;;;;;0.70;68.20;;;;;;5113069;28;19953;-87
2022/03/08 02:36:55;;;;;;;;;;;0.80;68.70;;;;;;5111495;28;19947;-87
2022/03/08 02:39:20;;;;;;;;;;;0.70;69.10;;;;;;5112486;28;19962;-86
2022/03/08 02:41:45;;;;;;;;;;;0.70;69.30;;;;;;5113832;28;20368;-87
2022/03/08 02:44:14;;;;;;;;;;;0.70;68.40;;;;;;5112387;28;19911;-87
2022/03/08 02:46:39;;;;;;;;;;;0.70;68.70;;;;;;5117151;28;19915;-87
2022/03/08 02:49:05;;;;;;;;;;;0.80;68.70;;;;;;5135507;28;19923;-87
2022/03/08 02:51:30;;;;;;;;;;;0.80;68.00;;;;;;5136092;28;19990;-86
2022/03/08 02:53:56;;;;;;;;;;;0.70;68.60;;;;;;5112650;28;19915;-87
2022/03/08 02:56:27;;;;;;;;;;;0.70;68.50;;;;;;5113554;28;19915;-87
2022/03/08 02:58:53;;;;;;;;;;;0.70;68.40;;;;;;5112940;28;19962;-87
2022/03/08 03:01:18;;;;;;;;;;;0.70;69.10;;;;;;5111161;28;20334;-87
2022/03/08 03:03:44;;;;;;;;;;;0.70;68.70;;;;;;5131681;28;20410;-86
2022/03/08 03:06:12;;;;;;;;;;;0.70;68.10;;;;;;5131686;28;20011;-87
2022/03/08 03:08:38;;;;;;;;;;;0.70;68.40;;;;;;5132971;28;19915;-87
2022/03/08 03:11:03;;;;;;;;;;;0.60;68.90;;;;;;5128801;28;20007;-87
2022/03/08 03:13:29;;;;;;;;;;;0.60;69.10;;;;;;5130450;28;19990;-86
2022/03/08 03:15:54;;;;;;;;;;;0.60;69.50;;;;;;5116034;28;19911;-86
2022/03/08 03:18:20;;;;;;;;;;;0.60;69.50;;;;;;5112557;28;19915;-87
2022/03/08 03:20:45;;;;;;;;;;;0.50;69.30;;;;;;5114259;27;19962;-86
2022/03/08 03:23:11;;;;;;;;;;;0.60;69.50;;;;;;5118314;27;19922;-86
2022/03/08 03:25:36;;;;;;;;;;;0.50;69.30;;;;;;5115934;27;19926;-86
2022/03/08 03:28:02;;;;;;;;;;;0.50;69.00;;;;;;5114522;27;19916;-86
2022/03/08 03:30:27;;;;;;;;;;;0.50;69.10;;;;;;5116946;27;19915;-86
2022/03/08 03:32:53;;;;;;;;;;;0.40;69.30;;;;;;5136087;27;19911;-86
2022/03/08 03:35:18;;;;;;;;;;;0.40;69.90;;;;;;5112858;27;19911;-86
2022/03/08 03:37:44;;;;;;;;;;;0.30;70.20;;;;;;5116274;27;19919;-87
2022/03/08 03:40:10;;;;;;;;;;;0.40;69.90;;;;;;5114523;27;20010;-86
2022/03/08 03:42:36;;;;;;;;;;;0.40;69.80;;;;;;5116732;27;19915;-86
2022/03/08 03:45:02;;;;;;;;;;;0.40;69.70;;;;;;5115297;27;20442;-86
2022/03/08 03:47:27;;;;;;;;;;;0.40;69.80;;;;;;5115989;27;19916;-86
2022/03/08 03:49:53;;;;;;;;;;;0.40;70.30;;;;;;5133175;27;20374;-87
2022/03/08 03:52:18;;;;;;;;;;;0.40;70.10;;;;;;5117581;27;20269;-86
2022/03/08 03:54:44;;;;;;;;;;;0.40;69.80;;;;;;5115084;27;20364;-86
2022/03/08 03:57:11;;;;;;;;;;;0.40;70.10;;;;;;5116216;27;19991;-86
2022/03/08 03:59:37;;;;;;;;;;;0.40;69.90;;;;;;5114656;27;20298;-86
2022/03/08 04:02:03;;;;;;;;;;;0.40;70.00;;;;;;5134930;27;19911;-86
2022/03/08 04:04:28;;;;;;;;;;;0.50;70.10;;;;;;5114676;27;19911;-86
2022/03/08 04:06:54;;;;;;;;;;;0.50;69.80;;;;;;5112604;27;20003;-87
2022/03/08 04:09:19;;;;;;;;;;;0.60;69.80;;;;;;5114221;27;19994;-86
2022/03/08 04:11:45;;;;;;;;;;;0.50;70.00;;;;;;5115129;27;19911;-86
2022/03/08 04:14:10;;;;;;;;;;;0.50;69.70;;;;;;5114842;27;20425;-86
2022/03/08 04:16:36;;;;;;;;;;;0.60;69.80;;;;;;5114859;27;20377;-86
2022/03/08 04:19:01;;;;;;;;;;;0.50;70.30;;;;;;5133542;27;19945;-86
2022/03/08 04:21:34;;;;;;;;;;;0.50;70.30;;;;;;5114843;27;20006;-86
2022/03/08 04:23:59;;;;;;;;;;;0.50;70.50;;;;;;5103992;28;19915;-86
2022/03/08 04:26:25;;;;;;;;;;;0.40;70.70;;;;;;5109099;27;20053;-86
2022/03/08 04:28:51;;;;;;;;;;;0.40;71.10;;;;;;5132908;27;20113;-86
2022/03/08 04:31:19;;;;;;;;;;;0.50;70.60;;;;;;5133760;27;20339;-86
2022/03/08 04:33:45;;;;;;;;;;;0.40;70.40;;;;;;5114932;27;20076;-86
2022/03/08 04:36:10;;;;;;;;;;;0.50;70.50;;;;;;5115642;27;20387;-87
2022/03/08 04:38:36;;;;;;;;;;;0.50;70.50;;;;;;5114681;27;20066;-86
2022/03/08 04:41:02;;;;;;;;;;;0.50;70.20;;;;;;5132295;27;19912;-86
2022/03/08 04:43:28;;;;;;;;;;;0.50;70.50;;;;;;5115421;27;19975;-87
2022/03/08 04:45:54;;;;;;;;;;;0.50;70.60;;;;;;5109271;28;19912;-87
2022/03/08 04:48:19;;;;;;;;;;;0.50;70.90;;;;;;5127654;27;19922;-87
2022/03/08 04:50:45;;;;;;;;;;;0.60;70.20;;;;;;5114607;27;20006;-87
2022/03/08 04:53:10;;;;;;;;;;;0.60;70.60;;;;;;5113738;27;19912;-85
2022/03/08 04:55:36;;;;;;;;;;;0.60;70.50;;;;;;5114245;27;19979;-86
2022/03/08 04:58:01;;;;;;;;;;;0.60;70.50;;;;;;5117711;27;19950;-87
2022/03/08 05:00:27;;;;;;;;;;;0.60;70.10;;;;;;5115644;27;19923;-86
2022/03/08 05:02:52;;;;;;;;;;;0.50;71.10;;;;;;5114543;27;20295;-86
2022/03/08 05:05:18;;;;;;;;;;;0.50;71.30;;;;;;5134294;27;19908;-86
2022/03/08 05:07:43;;;;;;;;;;;0.40;71.10;;;;;;5116083;27;19935;-86
2022/03/08 05:10:10;;;;;;;;;;;0.30;71.00;;;;;;5114934;27;19915;-86
2022/03/08 05:12:36;;;;;;;;;;;0.40;71.50;;;;;;5112096;27;19919;-85
2022/03/08 05:15:02;;;;;;;;;;;0.40;71.20;;;;;;5099055;27;19911;-87
2022/03/08 05:17:27;;;;;;;;;;;0.40;71.40;;;;;;5108375;27;19919;-84
2022/03/08 05:19:53;;;;;;;;;;;0.40;70.90;;;;;;5113956;27;20262;-85
2022/03/08 05:22:18;;;;;;;;;;;0.40;71.30;;;;;;5142567;27;19933;-83
2022/03/08 05:24:44;;;;;;;;;;;0.50;71.00;;;;;;5129348;27;19923;-85
2022/03/08 05:27:10;;;;;;;;;;;0.30;71.20;;;;;;5127639;27;20116;-84
2022/03/08 05:29:35;;;;;;;;;;;0.40;71.20;;;;;;5116968;27;19935;-83
2022/03/08 05:32:01;;;;;;;;;;;0.30;71.20;;;;;;5122324;27;19948;-81
2022/03/08 05:34:27;;;;;;;;;;;0.30;71.80;;;;;;5139710;27;19912;-85
2022/03/08 05:36:52;;;;;;;;;;;0.30;71.20;;;;;;5114968;27;19977;-87
2022/03/08 05:39:18;;;;;;;;;;;0.30;71.70;;;;;;5097271;28;19911;-86
2022/03/08 05:41:43;;;;;;;;;;;0.30;71.70;;;;;;5111163;27;19919;-85
2022/03/08 05:44:09;;;;;;;;;;;0.30;72.00;;;;;;5119256;28;19922;-86
2022/03/08 05:46:34;;;;;;;;;;;0.30;72.00;;;;;;5120099;27;20293;-87
2022/03/08 05:49:00;;;;;;;;;;;0.30;71.60;;;;;;5128105;27;20010;-86
2022/03/08 05:51:25;;;;;;;;;;;0.30;71.60;;;;;;5117613;27;19979;-83
2022/03/08 05:53:51;;;;;;;;;;;0.30;71.70;;;;;;5136901;27;19931;-85
2022/03/08 05:56:16;;;;;;;;;;;0.30;71.30;;;;;;5143378;27;19914;-84
2022/03/08 05:58:42;;;;;;;;;;;0.30;71.80;;;;;;5121276;28;19915;-85
2022/03/08 06:01:07;;;;;;;;;;;0.40;71.50;;;;;;5121254;27;19911;-85
2022/03/08 06:03:33;;;;;;;;;;;0.30;71.50;;;;;;5138719;27;19952;-85
2022/03/08 06:05:59;;;;;;;;;;;0.20;71.60;;;;;;5115797;27;19918;-82
2022/03/08 06:08:25;;;;;;;;;;;0.20;72.00;;;;;;5117955;28;20327;-85
2022/03/08 06:10:50;;;;;;;;;;;0.20;71.60;;;;;;5116896;27;19919;-84
2022/03/08 06:13:16;;;;;;;;;;;0.20;72.10;;;;;;5136455;28;19915;-85
2022/03/08 06:15:41;;;;;;;;;;;0.10;72.70;;;;;;5116662;28;20002;-85
2022/03/08 06:18:06;;;;;;;;;;;0.10;72.70;;;;;;5116901;28;20289;-85
2022/03/08 06:20:32;;;;;;;;;;;0.20;72.70;;;;;;5115881;28;19911;-84
2022/03/08 06:22:58;;;;;;;;;;;0.20;72.60;;;;;;5117170;28;19912;-82
2022/03/08 06:25:23;;;;;;;;;;;0.30;72.30;;;;;;5135870;28;19962;-84
2022/03/08 06:27:49;;;;;;;;;;;0.30;72.20;;;;;;5113036;28;19916;-85
2022/03/08 06:30:14;;;;;;;;;;;0.40;72.20;;;;;;5121312;28;20304;-85
2022/03/08 06:32:39;;;;;;;;;;;0.30;72.50;;;;;;5095447;28;19965;-83
2022/03/08 06:35:05;;;;;;;;;;;0.40;72.60;;;;;;5110553;28;19919;-83
2022/03/08 06:37:31;;;;;;;;;;;0.40;72.90;;;;;;5114748;28;20366;-83
2022/03/08 06:39:56;;;;;;;;;;;0.40;72.80;;;;;;5120960;28;19912;-84
2022/03/08 06:42:22;;;;;;;;;;;0.40;72.70;;;;;;5114787;28;19919;-83
2022/03/08 06:44:47;;;;;;;;;;;0.50;72.00;;;;;;5113693;28;19923;-83
2022/03/08 06:47:13;;;;;;;;;;;0.60;71.70;;;;;;5106834;28;19912;-82
2022/03/08 06:49:39;;;;;;;;;;;0.50;71.40;;;;;;5114855;28;20006;-83
2022/03/08 06:52:07;;;;;;;;;;;0.30;71.70;;;;;;5134281;27;20049;-86
2022/03/08 06:54:32;;;;;;;;;;;0.30;72.30;;;;;;5118898;28;19927;-83
2022/03/08 06:56:58;;;;;;;;;;;0.30;72.50;;;;;;5143001;27;19976;-83
2022/03/08 06:59:24;;;;;;;;;;;0.30;72.50;;;;;;5128297;27;19919;-82
2022/03/08 07:01:49;;;;;;;;;;;0.30;72.20;;;;;;5130626;27;19915;-82
2022/03/08 07:04:15;;;;;;;;;;;0.40;72.20;;;;;;5108997;27;19916;-82
2022/03/08 07:06:40;;;;;;;;;;;0.40;72.40;;;;;;5134998;27;20373;-82
2022/03/08 07:09:06;;;;;;;;;;;0.30;72.60;;;;;;5137056;27;20289;-82
2022/03/08 07:11:31;;;;;;;;;;;0.40;72.80;;;;;;5144347;27;19918;-82
2022/03/08 07:13:57;;;;;;;;;;;0.50;73.00;;;;;;5140090;27;20281;-82
2022/03/08 07:16:23;;;;;;;;;;;0.50;73.10;;;;;;5124346;27;19912;-82
2022/03/08 07:18:48;;;;;;;;;;;0.50;73.00;;;;;;5120181;27;20011;-83
2022/03/08 07:21:14;;;;;;;;;;;0.60;73.00;;;;;;5135602;27;20295;-82
2022/03/08 07:23:39;;;;;;;;;;;0.70;73.20;;;;;;5135056;27;19915;-81
2022/03/08 07:26:05;;;;;;;;;;;0.90;73.10;;;;;;5135863;27;20308;-82
2022/03/08 07:28:31;;;;;;;;;;;1.10;73.40;;;;;;5135957;27;19911;-82
2022/03/08 07:30:56;;;;;;;;;;;1.20;73.90;;;;;;5117476;27;20464;-82
2022/03/08 07:33:21;;;;;;;;;;;1.30;73.50;;;;;;5117100;27;20301;-81
2022/03/08 07:35:47;;;;;;;;;;;1.30;72.50;;;;;;5136145;27;19968;-82
2022/03/08 07:38:12;;;;;;;;;;;1.30;72.20;;;;;;5139712;27;20004;-82
2022/03/08 07:40:38;;;;;;;;;;;1.40;72.20;;;;;;5113212;28;20393;-82
2022/03/08 07:43:04;;;;;;;;;;;1.50;71.40;;;;;;5105015;27;19922;-81
2022/03/08 07:45:30;;;;;;;;;;;1.60;70.20;;;;;;5114866;27;20380;-82
2022/03/08 07:47:56;;;;;;;;;;;1.60;69.70;;;;;;5135103;27;20021;-82
2022/03/08 07:50:25;;;;;;;;;;;1.70;69.20;;;;;;5136725;27;20446;-82
2022/03/08 07:52:51;;;;;;;;;;;1.80;69.20;;;;;;5126786;22;20300;-77
2022/03/08 07:55:17;;;;;;;;;;;1.90;68.90;;;;;;5090235;28;19917;-77
2022/03/08 07:57:42;;;;;;;;;;;2.00;68.50;;;;;;5086842;28;20273;-77
2022/03/08 08:00:08;;;;;;;;;;;2.10;68.40;;;;;;5083308;28;19991;-77
2022/03/08 08:02:34;;;;;;;;;;;2.30;67.60;;;;;;5079424;28;19912;-77
2022/03/08 08:04:59;;;;;;;;;;;2.40;66.70;;;;;;5079983;28;20493;-77
2022/03/08 08:07:24;;;;;;;;;;;2.50;67.20;;;;;;5091682;28;19919;-77
2022/03/08 08:09:50;;;;;;;;;;;2.60;67.00;;;;;;5088162;28;19920;-77
2022/03/08 08:12:15;;;;;;;;;;;2.70;66.10;;;;;;5091023;28;19916;-77
2022/03/08 08:14:41;;;;;;;;;;;2.80;65.80;;;;;;5089033;28;20450;-77
2022/03/08 08:17:07;;;;;;;;;;;3.00;65.30;;;;;;5091702;28;19934;-76
2022/03/08 08:19:32;;;;;;;;;;;3.10;65.00;;;;;;5083286;28;20210;-77
2022/03/08 08:21:57;;;;;;;;;;;3.30;64.20;;;;;;5071659;28;20381;-77
2022/03/08 08:24:23;;;;;;;;;;;3.40;63.00;;;;;;5081893;28;20267;-77
2022/03/08 08:26:49;;;;;;;;;;;3.60;62.10;;;;;;5086150;28;19912;-76
2022/03/08 08:29:14;;;;;;;;;;;3.60;59.50;;;;;;5082576;28;19998;-76
2022/03/08 08:31:40;;;;;;;;;;;3.80;60.10;;;;;;5084704;28;20007;-77
2022/03/08 08:34:05;;;;;;;;;;;3.90;59.90;;;;;;5085881;28;19955;-77
2022/03/08 08:36:31;;;;;;;;;;;4.00;59.30;;;;;;5087792;28;19952;-77
2022/03/08 08:38:56;;;;;;;;;;;4.10;59.80;;;;;;5087066;28;19912;-79
2022/03/08 08:41:22;;;;;;;;;;;4.10;60.30;;;;;;5089178;28;19959;-79
2022/03/08 08:43:47;;;;;;;;;;;4.30;59.00;;;;;;5086180;28;19951;-77
2022/03/08 08:46:13;;;;;;;;;;;4.50;57.50;;;;;;5082284;28;20007;-77
2022/03/08 08:48:38;;;;;;;;;;;4.50;57.40;;;;;;5074829;28;20079;-77
2022/03/08 08:51:04;;;;;;;;;;;4.60;57.20;;;;;;5084647;28;19920;-77
2022/03/08 08:53:29;;;;;;;;;;;4.80;57.80;;;;;;5085105;28;19916;-77
2022/03/08 08:55:55;;;;;;;;;;;4.80;57.40;;;;;;5088975;28;19912;-78
2022/03/08 08:58:20;;;;;;;;;;;4.80;57.50;;;;;;5085222;28;19919;-78
2022/03/08 09:00:46;;;;;;;;;;;5.10;56.70;;;;;;5084247;28;20003;-78
2022/03/08 09:03:14;;;;;;;;;;;5.10;56.20;;;;;;5086141;28;19920;-77
2022/03/08 09:05:44;;;;;;;;;;;5.10;54.80;;;;;;5088147;28;19916;-78
2022/03/08 09:08:10;;;;;;;;;;;5.10;55.20;;;;;;5080456;28;20010;-78
2022/03/08 09:10:36;;;;;;;;;;;5.10;54.80;;;;;;5082607;28;20010;-78
2022/03/08 09:13:02;;;;;;;;;;;5.20;54.00;;;;;;5080102;28;19976;-77
2022/03/08 09:15:27;;;;;;;;;;;5.40;54.60;;;;;;5080057;28;19912;-78
2022/03/08 09:17:53;;;;;;;;;;;5.40;53.40;;;;;;5085665;28;20003;-78
2022/03/08 09:20:18;;;;;;;;;;;5.60;53.60;;;;;;5079032;28;20376;-78
2022/03/08 09:22:44;;;;;;;;;;;5.60;53.70;;;;;;5089359;28;20360;-79
2022/03/08 09:25:09;;;;;;;;;;;5.80;52.30;;;;;;5087610;28;20338;-78
2022/03/08 09:27:35;;;;;;;;;;;5.80;52.10;;;;;;5091613;28;20003;-79
2022/03/08 09:30:01;;;;;;;;;;;6.00;51.60;;;;;;5086402;28;19912;-77
2022/03/08 09:32:27;;;;;;;;;;;6.10;50.50;;;;;;5085582;28;19920;-79
2022/03/08 09:34:52;;;;;;;;;;;6.10;50.00;;;;;;5085877;28;19965;-77
2022/03/08 09:37:17;;;;;;;;;;;6.10;50.40;;;;;;5088900;28;19999;-77
2022/03/08 09:39:43;;;;;;;;;;;6.10;50.30;;;;;;5074614;28;20720;-78
2022/03/08 09:42:09;;;;;;;;;;;6.10;50.10;;;;;;5080884;28;19957;-78
2022/03/08 09:44:36;;;;;;;;;;;6.30;50.10;;;;;;5086484;28;19912;-77
2022/03/08 09:47:02;;;;;;;;;;;6.40;50.10;;;;;;5085186;28;19916;-79
2022/03/08 09:49:27;;;;;;;;;;;6.50;49.60;;;;;;5081418;28;19920;-77
2022/03/08 09:51:53;;;;;;;;;;;6.50;48.20;;;;;;5085391;28;19912;-78
2022/03/08 09:54:19;;;;;;;;;;;6.50;48.30;;;;;;5076423;28;19920;-79
2022/03/08 09:56:44;;;;;;;;;;;6.50;47.30;;;;;;5076856;28;19920;-77
2022/03/08 09:59:13;;;;;;;;;;;6.60;48.00;;;;;;5079687;28;20025;-77
2022/03/08 10:01:38;;;;;;;;;;;6.60;47.30;;;;;;5078841;28;19912;-78
2022/03/08 10:04:06;;;;;;;;;;;6.70;46.80;;;;;;5087857;28;19935;-78
2022/03/08 10:06:41;;;;;;;;;;;6.60;48.00;;;;;;5088009;28;20433;-79
2022/03/08 10:09:10;;;;;;;;;;;6.60;47.60;;;;;;5085384;28;20446;-79
2022/03/08 10:11:36;;;;;;;;;;;6.80;48.20;;;;;;5083248;28;19921;-80
2022/03/08 10:14:02;;;;;;;;;;;6.90;47.30;;;;;;5084530;28;20246;-78
2022/03/08 10:16:41;;;;;;;;;;;6.90;46.20;;;;;;5086176;28;20015;-78
2022/03/08 10:19:09;;;;;;;;;;;6.90;46.70;;;;;;5080915;28;19986;-79
2022/03/08 10:21:36;;;;;;;;;;;7.10;46.40;;;;;;5089915;28;19924;-79
2022/03/08 10:24:03;;;;;;;;;;;7.10;46.80;;;;;;5077425;28;19916;-79
2022/03/08 10:26:29;;;;;;;;;;;7.20;45.90;;;;;;5078492;28;19912;-78
2022/03/08 10:28:56;;;;;;;;;;;7.20;45.60;;;;;;5090773;28;19917;-76
2022/03/08 10:31:21;;;;;;;;;;;7.30;44.60;;;;;;5089474;28;19924;-79
2022/03/08 10:33:48;;;;;;;;;;;7.30;45.10;;;;;;5087395;28;20424;-77
2022/03/08 10:36:14;;;;;;;;;;;7.40;44.90;;;;;;5074646;28;19909;-77
2022/03/08 10:38:41;;;;;;;;;;;7.50;44.50;;;;;;5081118;28;20371;-78
2022/03/08 10:41:19;;;;;;;;;;;7.50;44.30;;;;;;5079671;28;19935;-77
2022/03/08 10:43:50;;;;;;;;;;;7.60;43.40;;;;;;5075132;28;19931;-78
2022/03/08 10:46:16;;;;;;;;;;;7.60;44.90;;;;;;5089665;28;19935;-78
2022/03/08 10:48:42;;;;;;;;;;;7.60;44.40;;;;;;5082477;28;19920;-77
2022/03/08 10:51:11;;;;;;;;;;;7.70;43.40;;;;;;5083471;28;19922;-77
2022/03/08 10:53:37;;;;;;;;;;;7.80;43.60;;;;;;5091191;28;19927;-77
2022/03/08 10:56:02;;;;;;;;;;;7.80;42.80;;;;;;5090820;28;19912;-78
2022/03/08 10:58:28;;;;;;;;;;;8.00;43.20;;;;;;5089856;28;19998;-77
2022/03/08 11:00:58;;;;;;;;;;;8.00;43.10;;;;;;5085852;28;19912;-77
2022/03/08 11:03:25;;;;;;;;;;;8.10;42.90;;;;;;5091060;28;19924;-77
2022/03/08 11:06:04;;;;;;;;;;;8.10;43.20;;;;;;5090900;28;20007;-78
2022/03/08 11:08:30;;;;;;;;;;;8.30;42.20;;;;;;5093347;28;19934;-78
2022/03/08 11:10:56;;;;;;;;;;;8.30;42.50;;;;;;5076482;28;20317;-78
2022/03/08 11:13:21;;;;;;;;;;;8.30;41.30;;;;;;5085941;28;19998;-79
2022/03/08 11:15:47;;;;;;;;;;;8.50;40.70;;;;;;5089400;28;19989;-77
2022/03/08 11:18:13;;;;;;;;;;;8.50;39.80;;;;;;5081991;28;20030;-77
2022/03/08 11:20:39;;;;;;;;;;;8.50;40.50;;;;;;5085253;28;19916;-78
2022/03/08 11:23:05;;;;;;;;;;;8.60;39.90;;;;;;5092659;28;19965;-77
2022/03/08 11:25:35;;;;;;;;;;;8.60;39.40;;;;;;5090004;28;19913;-77
2022/03/08 11:28:02;;;;;;;;;;;8.70;39.40;;;;;;5090491;28;19916;-79
2022/03/08 11:30:29;;;;;;;;;;;8.80;39.90;;;;;;5084484;28;20368;-78
2022/03/08 11:33:06;;;;;;;;;;;8.80;39.70;;;;;;5092432;28;20012;-77
2022/03/08 11:35:50;;;;;;;;;;;8.80;38.90;;;;;;5091090;28;19916;-77
2022/03/08 11:38:16;;;;;;;;;;;8.90;38.50;;;;;;5090818;28;20240;-79
2022/03/08 11:40:53;;;;;;;;;;;8.80;37.60;;;;;;5090269;28;19920;-77
2022/03/08 11:43:18;;;;;;;;;;;8.80;39.70;;;;;;5093500;28;20005;-78
2022/03/08 11:45:48;;;;;;;;;;;8.80;37.70;;;;;;5090466;28;19920;-78
2022/03/08 11:48:14;;;;;;;;;;;8.80;38.40;;;;;;5089219;28;19916;-79
2022/03/08 11:50:44;;;;;;;;;;;8.90;37.10;;;;;;5088713;28;20003;-80
2022/03/08 11:53:13;;;;;;;;;;;9.00;38.00;;;;;;5093992;28;19924;-77
2022/03/08 11:55:45;;;;;;;;;;;9.10;37.70;;;;;;5086519;28;19935;-78
2022/03/08 11:58:14;;;;;;;;;;;9.20;36.70;;;;;;5079090;28;19919;-77
2022/03/08 12:00:40;;;;;;;;;;;9.10;37.50;;;;;;5088144;28;19916;-78
2022/03/08 12:03:10;;;;;;;;;;;9.10;38.80;;;;;;5091919;28;20562;-79
2022/03/08 12:05:38;;;;;;;;;;;9.10;37.00;;;;;;5093953;28;19951;-78
2022/03/08 12:08:25;;;;;;;;;;;9.20;36.90;;;;;;5093985;28;20014;-77
2022/03/08 12:10:57;;;;;;;;;;;9.10;36.60;;;;;;5093966;28;19912;-78
2022/03/08 12:13:24;;;;;;;;;;;9.20;37.00;;;;;;5093945;28;19908;-79
2022/03/08 12:16:11;;;;;;;;;;;9.30;35.80;;;;;;5098917;28;19912;-78
2022/03/08 12:18:50;;;;;;;;;;;9.30;38.00;;;;;;5092941;28;19912;-78
2022/03/08 12:21:16;;;;;;;;;;;9.30;37.10;;;;;;5097052;28;19962;-77
2022/03/08 12:24:02;;;;;;;;;;;9.40;36.10;;;;;;5092984;28;19947;-77
2022/03/08 12:26:46;;;;;;;;;;;9.50;36.40;;;;;;5092513;28;20002;-78
2022/03/08 12:29:15;;;;;;;;;;;9.50;37.30;;;;;;5090754;28;19920;-79
2022/03/08 12:31:58;;;;;;;;;;;9.50;36.80;;;;;;5092468;28;19916;-77
2022/03/08 12:34:33;;;;;;;;;;;9.60;38.30;;;;;;5081427;28;20011;-77
2022/03/08 12:37:10;;;;;;;;;;;9.60;37.00;;;;;;5092548;28;19994;-77
2022/03/08 12:39:43;;;;;;;;;;;9.50;36.80;;;;;;5089675;28;20137;-77
2022/03/08 12:42:16;;;;;;;;;;;9.50;35.40;;;;;;5093436;28;19912;-77
2022/03/08 12:44:48;;;;;;;;;;;9.50;36.20;;;;;;5092541;28;19916;-77
2022/03/08 12:47:13;;;;;;;;;;;9.50;36.20;;;;;;5088559;28;19912;-77
2022/03/08 12:49:39;;;;;;;;;;;9.50;37.50;;;;;;5090068;28;20349;-77
2022/03/08 12:52:04;;;;;;;;;;;9.60;36.70;;;;;;5092816;28;19961;-76
2022/03/08 12:54:31;;;;;;;;;;;9.60;36.50;;;;;;5081611;28;19939;-76
2022/03/08 12:56:56;;;;;;;;;;;9.60;36.50;;;;;;5076011;28;19926;-76
2022/03/08 12:59:22;;;;;;;;;;;9.80;36.30;;;;;;5081566;28;19916;-78
2022/03/08 13:01:48;;;;;;;;;;;9.70;36.70;;;;;;5085024;28;19986;-78
2022/03/08 13:04:23;;;;;;;;;;;9.80;37.00;;;;;;5090293;28;20030;-77
2022/03/08 13:07:05;;;;;;;;;;;9.80;36.70;;;;;;5090289;28;19915;-78
2022/03/08 13:09:46;;;;;;;;;;;9.80;36.20;;;;;;5087056;28;19919;-78
2022/03/08 13:12:19;;;;;;;;;;;9.90;35.90;;;;;;5090046;28;20400;-77
2022/03/08 13:15:04;;;;;;;;;;;9.90;36.00;;;;;;5084719;28;19999;-78
2022/03/08 13:17:29;;;;;;;;;;;9.90;35.90;;;;;;5087172;28;20015;-79
2022/03/08 13:19:55;;;;;;;;;;;9.90;36.10;;;;;;5074007;28;19951;-79
2022/03/08 13:22:20;;;;;;;;;;;10.10;35.30;;;;;;5087897;28;19908;-80
2022/03/08 13:25:06;;;;;;;;;;;10.00;35.70;;;;;;5085213;28;19958;-79
2022/03/08 13:27:47;;;;;;;;;;;10.10;35.80;;;;;;5086267;28;20007;-80
2022/03/08 13:30:36;;;;;;;;;;;10.10;35.90;;;;;;5082580;28;19988;-79
2022/03/08 13:33:08;;;;;;;;;;;10.20;35.30;;;;;;5071434;28;20004;-77
2022/03/08 13:35:39;;;;;;;;;;;10.30;34.50;;;;;;5077529;28;20292;-77
2022/03/08 13:38:05;;;;;;;;;;;10.30;33.20;;;;;;5085993;28;19912;-77
2022/03/08 13:40:32;;;;;;;;;;;10.30;33.30;;;;;;5083919;28;19912;-77
2022/03/08 13:42:59;;;;;;;;;;;10.20;34.00;;;;;;5085877;28;19990;-77
2022/03/08 13:45:25;;;;;;;;;;;10.20;34.30;;;;;;5077455;28;19913;-77
2022/03/08 13:47:51;;;;;;;;;;;10.20;35.70;;;;;;5085593;28;19939;-77
2022/03/08 13:50:17;;;;;;;;;;;10.20;33.80;;;;;;5088311;28;19950;-77
2022/03/08 13:52:57;;;;;;;;;;;10.30;34.70;;;;;;5081473;28;20329;-77
2022/03/08 13:55:26;;;;;;;;;;;10.30;34.00;;;;;;5081745;28;19920;-77
2022/03/08 13:57:56;;;;;;;;;;;10.30;33.90;;;;;;5089356;28;19912;-77
2022/03/08 14:00:25;;;;;;;;;;;10.40;33.80;;;;;;5084579;28;19912;-77
2022/03/08 14:02:55;;;;;;;;;;;10.50;32.50;;;;;;5087244;28;20242;-79
2022/03/08 14:05:21;;;;;;;;;;;10.40;33.30;;;;;;5078268;28;20293;-77
2022/03/08 14:08:00;;;;;;;;;;;10.30;33.80;;;;;;5083101;28;19916;-77
2022/03/08 14:10:26;;;;;;;;;;;10.30;34.40;;;;;;5078806;28;19912;-82
2022/03/08 14:12:52;;;;;;;;;;;10.30;35.40;;;;;;5088494;28;19957;-78
2022/03/08 14:15:18;;;;;;;;;;;10.40;34.70;;;;;;5086015;28;19916;-77
2022/03/08 14:17:44;;;;;;;;;;;10.50;34.10;;;;;;5085061;28;19920;-77
2022/03/08 14:20:14;;;;;;;;;;;10.60;33.60;;;;;;5088734;28;19916;-78
2022/03/08 14:23:09;;;;;;;;;;;10.50;33.80;;;;;;5089165;28;20007;-78
2022/03/08 14:25:35;;;;;;;;;;;10.50;33.60;;;;;;5056287;28;20023;-78
2022/03/08 14:28:01;;;;;;;;;;;10.50;34.00;;;;;;5082620;28;19916;-79
2022/03/08 14:30:27;;;;;;;;;;;10.40;33.80;;;;;;5085235;28;19912;-78
2022/03/08 14:33:02;;;;;;;;;;;10.40;33.80;;;;;;5089124;28;19984;-77
2022/03/08 14:35:28;;;;;;;;;;;10.50;33.80;;;;;;5089865;28;20406;-78